sensor_id;sensor_type;location;lat;lon;timestamp;P1;durP1;ratioP1;P2;durP2;ratioP2
19675;SDS011;39539;52.202;9.876;2023-12-20T00:00:47;7.45;;;7.03;;
19675;SDS011;39539;52.202;9.876;2023-12-20T00:03:12;6.80;;;6.50;;
19675;SDS011;39539;52.202;9.876;2023-12-20T00:05:37;5.40;;;5.00;;
19675;SDS011;39539;52.202;9.876;2023-12-20T00:08:06;5.47;;;5.07;;
19675;SDS011;39539;52.202;9.876;2023-12-20T00:10:31;5.63;;;5.22;;
19675;SDS011;39539;52.202;9.876;2023-12-20T00:12:56;5.30;;;4.80;;
19675;SDS011;39539;52.202;9.876;2023-12-20T00:15:22;4.68;;;4.28;;
19675;SDS011;39539;52.202;9.876;2023-12-20T00:17:47;4.97;;;4.57;;
19675;SDS011;39539;52.202;9.876;2023-12-20T00:20:12;5.00;;;4.05;;
19675;SDS011;39539;52.202;9.876;2023-12-20T00:22:38;3.90;;;3.50;;
19675;SDS011;39539;52.202;9.876;2023-12-20T00:25:03;6.30;;;6.00;;
19675;SDS011;39539;52.202;9.876;2023-12-20T00:27:29;5.55;;;5.25;;
19675;SDS011;39539;52.202;9.876;2023-12-20T00:29:54;5.70;;;5.40;;
19675;SDS011;39539;52.202;9.876;2023-12-20T00:32:20;6.30;;;5.95;;
19675;SDS011;39539;52.202;9.876;2023-12-20T00:34:45;7.22;;;6.65;;
19675;SDS011;39539;52.202;9.876;2023-12-20T00:37:10;7.00;;;6.55;;
19675;SDS011;39539;52.202;9.876;2023-12-20T00:39:36;6.85;;;6.35;;
19675;SDS011;39539;52.202;9.876;2023-12-20T00:42:01;6.13;;;5.28;;
19675;SDS011;39539;52.202;9.876;2023-12-20T00:44:26;5.90;;;4.85;;
19675;SDS011;39539;52.202;9.876;2023-12-20T00:46:52;6.75;;;4.80;;
19675;SDS011;39539;52.202;9.876;2023-12-20T00:49:17;10.05;;;5.55;;
19675;SDS011;39539;52.202;9.876;2023-12-20T00:51:42;7.32;;;5.20;;
19675;SDS011;39539;52.202;9.876;2023-12-20T00:54:07;6.07;;;5.03;;
19675;SDS011;39539;52.202;9.876;2023-12-20T00:56:34;5.75;;;4.00;;
19675;SDS011;39539;52.202;9.876;2023-12-20T00:58:59;8.40;;;4.43;;
19675;SDS011;39539;52.202;9.876;2023-12-20T01:01:24;7.07;;;4.22;;
19675;SDS011;39539;52.202;9.876;2023-12-20T01:03:50;6.70;;;4.75;;
19675;SDS011;39539;52.202;9.876;2023-12-20T01:06:16;6.28;;;4.43;;
19675;SDS011;39539;52.202;9.876;2023-12-20T01:08:41;6.43;;;4.30;;
19675;SDS011;39539;52.202;9.876;2023-12-20T01:11:07;6.38;;;4.47;;
19675;SDS011;39539;52.202;9.876;2023-12-20T01:13:32;6.18;;;4.15;;
19675;SDS011;39539;52.202;9.876;2023-12-20T01:15:57;5.10;;;4.25;;
19675;SDS011;39539;52.202;9.876;2023-12-20T01:18:23;6.13;;;4.18;;
19675;SDS011;39539;52.202;9.876;2023-12-20T01:20:48;6.72;;;3.92;;
19675;SDS011;39539;52.202;9.876;2023-12-20T01:23:13;6.72;;;3.28;;
19675;SDS011;39539;52.202;9.876;2023-12-20T01:25:39;7.80;;;2.55;;
19675;SDS011;39539;52.202;9.876;2023-12-20T01:28:04;13.73;;;2.50;;
19675;SDS011;39539;52.202;9.876;2023-12-20T01:30:29;6.10;;;2.63;;
19675;SDS011;39539;52.202;9.876;2023-12-20T01:32:55;6.53;;;2.20;;
19675;SDS011;39539;52.202;9.876;2023-12-20T01:35:20;5.70;;;1.85;;
19675;SDS011;39539;52.202;9.876;2023-12-20T01:37:45;7.22;;;1.75;;
19675;SDS011;39539;52.202;9.876;2023-12-20T01:40:11;6.07;;;1.50;;
19675;SDS011;39539;52.202;9.876;2023-12-20T01:42:36;3.28;;;1.55;;
19675;SDS011;39539;52.202;9.876;2023-12-20T01:45:02;7.45;;;1.90;;
19675;SDS011;39539;52.202;9.876;2023-12-20T01:47:27;7.10;;;1.27;;
19675;SDS011;39539;52.202;9.876;2023-12-20T01:49:53;4.30;;;1.15;;
19675;SDS011;39539;52.202;9.876;2023-12-20T01:52:19;7.07;;;1.77;;
19675;SDS011;39539;52.202;9.876;2023-12-20T01:54:45;6.03;;;1.80;;
19675;SDS011;39539;52.202;9.876;2023-12-20T01:57:12;5.43;;;1.88;;
19675;SDS011;39539;52.202;9.876;2023-12-20T01:59:39;8.23;;;1.67;;
19675;SDS011;39539;52.202;9.876;2023-12-20T02:02:04;6.85;;;1.95;;
19675;SDS011;39539;52.202;9.876;2023-12-20T02:04:30;6.38;;;1.75;;
19675;SDS011;39539;52.202;9.876;2023-12-20T02:06:56;5.88;;;2.13;;
19675;SDS011;39539;52.202;9.876;2023-12-20T02:09:22;4.40;;;1.20;;
19675;SDS011;39539;52.202;9.876;2023-12-20T02:11:47;7.40;;;1.63;;
19675;SDS011;39539;52.202;9.876;2023-12-20T02:14:13;3.45;;;1.40;;
19675;SDS011;39539;52.202;9.876;2023-12-20T02:16:38;3.92;;;1.30;;
19675;SDS011;39539;52.202;9.876;2023-12-20T02:19:05;4.70;;;1.95;;
19675;SDS011;39539;52.202;9.876;2023-12-20T02:21:38;6.72;;;1.45;;
19675;SDS011;39539;52.202;9.876;2023-12-20T02:24:03;5.90;;;1.70;;
19675;SDS011;39539;52.202;9.876;2023-12-20T02:26:28;4.28;;;1.42;;
19675;SDS011;39539;52.202;9.876;2023-12-20T02:28:54;5.03;;;1.60;;
19675;SDS011;39539;52.202;9.876;2023-12-20T02:31:23;4.05;;;1.30;;
19675;SDS011;39539;52.202;9.876;2023-12-20T02:33:48;6.95;;;1.45;;
19675;SDS011;39539;52.202;9.876;2023-12-20T02:36:14;4.30;;;1.40;;
19675;SDS011;39539;52.202;9.876;2023-12-20T02:38:39;3.10;;;1.27;;
19675;SDS011;39539;52.202;9.876;2023-12-20T02:41:05;4.78;;;1.58;;
19675;SDS011;39539;52.202;9.876;2023-12-20T02:43:30;6.13;;;1.30;;
19675;SDS011;39539;52.202;9.876;2023-12-20T02:45:55;7.43;;;1.85;;
19675;SDS011;39539;52.202;9.876;2023-12-20T02:48:21;6.57;;;1.65;;
19675;SDS011;39539;52.202;9.876;2023-12-20T02:50:46;3.92;;;1.33;;
19675;SDS011;39539;52.202;9.876;2023-12-20T02:53:13;4.90;;;1.52;;
19675;SDS011;39539;52.202;9.876;2023-12-20T02:55:39;4.47;;;2.08;;
19675;SDS011;39539;52.202;9.876;2023-12-20T02:58:04;6.95;;;1.45;;
19675;SDS011;39539;52.202;9.876;2023-12-20T03:00:30;2.20;;;1.27;;
19675;SDS011;39539;52.202;9.876;2023-12-20T03:02:55;3.95;;;1.35;;
19675;SDS011;39539;52.202;9.876;2023-12-20T03:05:20;7.17;;;1.60;;
19675;SDS011;39539;52.202;9.876;2023-12-20T03:07:46;4.05;;;1.67;;
19675;SDS011;39539;52.202;9.876;2023-12-20T03:10:11;5.40;;;1.30;;
19675;SDS011;39539;52.202;9.876;2023-12-20T03:12:36;7.13;;;2.03;;
19675;SDS011;39539;52.202;9.876;2023-12-20T03:15:02;4.13;;;1.20;;
19675;SDS011;39539;52.202;9.876;2023-12-20T03:17:27;4.43;;;1.40;;
19675;SDS011;39539;52.202;9.876;2023-12-20T03:19:53;6.93;;;1.23;;
19675;SDS011;39539;52.202;9.876;2023-12-20T03:22:18;3.70;;;1.20;;
19675;SDS011;39539;52.202;9.876;2023-12-20T03:24:43;3.83;;;1.00;;
19675;SDS011;39539;52.202;9.876;2023-12-20T03:27:09;4.53;;;1.05;;
19675;SDS011;39539;52.202;9.876;2023-12-20T03:29:34;2.72;;;1.13;;
19675;SDS011;39539;52.202;9.876;2023-12-20T03:31:59;3.33;;;1.00;;
19675;SDS011;39539;52.202;9.876;2023-12-20T03:34:25;8.32;;;2.17;;
19675;SDS011;39539;52.202;9.876;2023-12-20T03:36:51;2.70;;;1.35;;
19675;SDS011;39539;52.202;9.876;2023-12-20T03:39:16;5.55;;;1.55;;
19675;SDS011;39539;52.202;9.876;2023-12-20T03:41:42;5.35;;;1.50;;
19675;SDS011;39539;52.202;9.876;2023-12-20T03:44:07;5.30;;;1.77;;
19675;SDS011;39539;52.202;9.876;2023-12-20T03:46:32;5.32;;;1.98;;
19675;SDS011;39539;52.202;9.876;2023-12-20T03:48:58;3.83;;;1.48;;
19675;SDS011;39539;52.202;9.876;2023-12-20T03:51:23;6.25;;;1.60;;
19675;SDS011;39539;52.202;9.876;2023-12-20T03:53:48;5.90;;;1.55;;
19675;SDS011;39539;52.202;9.876;2023-12-20T03:56:14;6.20;;;1.50;;
19675;SDS011;39539;52.202;9.876;2023-12-20T03:58:39;3.45;;;1.75;;
19675;SDS011;39539;52.202;9.876;2023-12-20T04:01:08;6.80;;;1.33;;
19675;SDS011;39539;52.202;9.876;2023-12-20T04:03:35;3.85;;;0.98;;
19675;SDS011;39539;52.202;9.876;2023-12-20T04:06:01;4.63;;;1.48;;
19675;SDS011;39539;52.202;9.876;2023-12-20T04:08:26;4.63;;;1.65;;
19675;SDS011;39539;52.202;9.876;2023-12-20T04:10:51;3.13;;;0.90;;
19675;SDS011;39539;52.202;9.876;2023-12-20T04:13:16;3.13;;;1.20;;
19675;SDS011;39539;52.202;9.876;2023-12-20T04:15:42;4.93;;;1.92;;
19675;SDS011;39539;52.202;9.876;2023-12-20T04:18:07;4.50;;;1.80;;
19675;SDS011;39539;52.202;9.876;2023-12-20T04:20:33;5.53;;;1.45;;
19675;SDS011;39539;52.202;9.876;2023-12-20T04:22:58;4.90;;;1.58;;
19675;SDS011;39539;52.202;9.876;2023-12-20T04:25:23;5.03;;;1.42;;
19675;SDS011;39539;52.202;9.876;2023-12-20T04:27:49;6.28;;;1.60;;
19675;SDS011;39539;52.202;9.876;2023-12-20T04:30:14;3.70;;;1.48;;
19675;SDS011;39539;52.202;9.876;2023-12-20T04:32:39;5.30;;;1.88;;
19675;SDS011;39539;52.202;9.876;2023-12-20T04:35:05;3.47;;;1.60;;
19675;SDS011;39539;52.202;9.876;2023-12-20T04:37:30;3.85;;;1.48;;
19675;SDS011;39539;52.202;9.876;2023-12-20T04:39:56;5.28;;;1.73;;
19675;SDS011;39539;52.202;9.876;2023-12-20T04:42:21;4.93;;;1.65;;
19675;SDS011;39539;52.202;9.876;2023-12-20T04:44:46;3.63;;;1.45;;
19675;SDS011;39539;52.202;9.876;2023-12-20T04:47:11;4.68;;;1.40;;
19675;SDS011;39539;52.202;9.876;2023-12-20T04:49:37;3.55;;;2.15;;
19675;SDS011;39539;52.202;9.876;2023-12-20T04:52:02;6.90;;;2.00;;
19675;SDS011;39539;52.202;9.876;2023-12-20T04:54:28;6.78;;;1.65;;
19675;SDS011;39539;52.202;9.876;2023-12-20T04:56:53;3.83;;;1.90;;
19675;SDS011;39539;52.202;9.876;2023-12-20T04:59:18;5.95;;;1.80;;
19675;SDS011;39539;52.202;9.876;2023-12-20T05:01:44;6.65;;;2.45;;
19675;SDS011;39539;52.202;9.876;2023-12-20T05:04:09;7.03;;;2.20;;
19675;SDS011;39539;52.202;9.876;2023-12-20T05:06:34;6.00;;;1.83;;
19675;SDS011;39539;52.202;9.876;2023-12-20T05:08:59;5.65;;;2.28;;
19675;SDS011;39539;52.202;9.876;2023-12-20T05:11:25;4.82;;;2.00;;
19675;SDS011;39539;52.202;9.876;2023-12-20T05:13:50;5.50;;;2.08;;
19675;SDS011;39539;52.202;9.876;2023-12-20T05:16:15;12.90;;;2.50;;
19675;SDS011;39539;52.202;9.876;2023-12-20T05:18:42;4.13;;;2.13;;
19675;SDS011;39539;52.202;9.876;2023-12-20T05:21:08;4.03;;;2.22;;
19675;SDS011;39539;52.202;9.876;2023-12-20T05:23:34;7.47;;;2.10;;
19675;SDS011;39539;52.202;9.876;2023-12-20T05:25:59;4.28;;;2.13;;
19675;SDS011;39539;52.202;9.876;2023-12-20T05:28:25;3.17;;;1.60;;
19675;SDS011;39539;52.202;9.876;2023-12-20T05:30:50;6.95;;;2.33;;
19675;SDS011;39539;52.202;9.876;2023-12-20T05:33:16;4.20;;;2.08;;
19675;SDS011;39539;52.202;9.876;2023-12-20T05:35:41;5.18;;;2.20;;
19675;SDS011;39539;52.202;9.876;2023-12-20T05:38:06;5.88;;;2.30;;
19675;SDS011;39539;52.202;9.876;2023-12-20T05:40:32;4.13;;;2.20;;
19675;SDS011;39539;52.202;9.876;2023-12-20T05:42:57;7.82;;;2.95;;
19675;SDS011;39539;52.202;9.876;2023-12-20T05:45:22;7.85;;;2.90;;
19675;SDS011;39539;52.202;9.876;2023-12-20T05:47:48;10.52;;;2.83;;
19675;SDS011;39539;52.202;9.876;2023-12-20T05:50:13;6.43;;;2.75;;
19675;SDS011;39539;52.202;9.876;2023-12-20T05:52:40;7.63;;;2.67;;
19675;SDS011;39539;52.202;9.876;2023-12-20T05:55:06;6.13;;;2.70;;
19675;SDS011;39539;52.202;9.876;2023-12-20T05:57:31;15.10;;;3.10;;
19675;SDS011;39539;52.202;9.876;2023-12-20T05:59:57;7.13;;;3.25;;
19675;SDS011;39539;52.202;9.876;2023-12-20T06:02:22;6.05;;;3.00;;
19675;SDS011;39539;52.202;9.876;2023-12-20T06:04:48;6.55;;;2.72;;
19675;SDS011;39539;52.202;9.876;2023-12-20T06:07:15;8.73;;;2.97;;
19675;SDS011;39539;52.202;9.876;2023-12-20T06:09:40;6.28;;;2.63;;
19675;SDS011;39539;52.202;9.876;2023-12-20T06:12:06;6.43;;;2.67;;
19675;SDS011;39539;52.202;9.876;2023-12-20T06:14:33;7.38;;;2.47;;
19675;SDS011;39539;52.202;9.876;2023-12-20T06:16:58;9.07;;;3.08;;
19675;SDS011;39539;52.202;9.876;2023-12-20T06:19:23;8.63;;;2.80;;
19675;SDS011;39539;52.202;9.876;2023-12-20T06:21:49;9.23;;;2.60;;
19675;SDS011;39539;52.202;9.876;2023-12-20T06:24:14;6.50;;;3.05;;
19675;SDS011;39539;52.202;9.876;2023-12-20T06:26:40;7.47;;;3.15;;
19675;SDS011;39539;52.202;9.876;2023-12-20T06:29:07;6.40;;;3.25;;
19675;SDS011;39539;52.202;9.876;2023-12-20T06:31:32;10.40;;;3.50;;
19675;SDS011;39539;52.202;9.876;2023-12-20T06:33:58;12.63;;;3.42;;
19675;SDS011;39539;52.202;9.876;2023-12-20T06:36:25;7.03;;;3.30;;
19675;SDS011;39539;52.202;9.876;2023-12-20T06:38:53;6.60;;;2.50;;
19675;SDS011;39539;52.202;9.876;2023-12-20T06:41:19;9.20;;;4.15;;
19675;SDS011;39539;52.202;9.876;2023-12-20T06:43:45;6.22;;;2.80;;
19675;SDS011;39539;52.202;9.876;2023-12-20T06:46:12;9.32;;;3.63;;
19675;SDS011;39539;52.202;9.876;2023-12-20T06:48:39;5.75;;;3.05;;
19675;SDS011;39539;52.202;9.876;2023-12-20T06:51:05;6.70;;;2.88;;
19675;SDS011;39539;52.202;9.876;2023-12-20T06:53:31;6.80;;;2.80;;
19675;SDS011;39539;52.202;9.876;2023-12-20T06:55:56;6.90;;;2.65;;
19675;SDS011;39539;52.202;9.876;2023-12-20T06:58:22;9.75;;;2.85;;
19675;SDS011;39539;52.202;9.876;2023-12-20T07:00:48;11.35;;;3.28;;
19675;SDS011;39539;52.202;9.876;2023-12-20T07:03:15;10.50;;;3.80;;
19675;SDS011;39539;52.202;9.876;2023-12-20T07:05:41;6.22;;;3.10;;
19675;SDS011;39539;52.202;9.876;2023-12-20T07:08:07;7.63;;;3.33;;
19675;SDS011;39539;52.202;9.876;2023-12-20T07:10:32;6.25;;;3.25;;
19675;SDS011;39539;52.202;9.876;2023-12-20T07:12:58;7.60;;;2.43;;
19675;SDS011;39539;52.202;9.876;2023-12-20T07:15:23;10.73;;;2.63;;
19675;SDS011;39539;52.202;9.876;2023-12-20T07:17:49;7.20;;;3.05;;
19675;SDS011;39539;52.202;9.876;2023-12-20T07:20:14;10.68;;;3.17;;
19675;SDS011;39539;52.202;9.876;2023-12-20T07:22:40;11.10;;;2.67;;
19675;SDS011;39539;52.202;9.876;2023-12-20T07:25:05;6.18;;;3.03;;
19675;SDS011;39539;52.202;9.876;2023-12-20T07:27:33;9.70;;;2.80;;
19675;SDS011;39539;52.202;9.876;2023-12-20T07:29:58;8.80;;;3.05;;
19675;SDS011;39539;52.202;9.876;2023-12-20T07:32:24;6.55;;;3.63;;
19675;SDS011;39539;52.202;9.876;2023-12-20T07:34:49;10.18;;;2.80;;
19675;SDS011;39539;52.202;9.876;2023-12-20T07:37:15;6.72;;;2.60;;
19675;SDS011;39539;52.202;9.876;2023-12-20T07:39:40;8.52;;;2.63;;
19675;SDS011;39539;52.202;9.876;2023-12-20T07:42:06;4.57;;;2.80;;
19675;SDS011;39539;52.202;9.876;2023-12-20T07:44:32;9.85;;;3.08;;
19675;SDS011;39539;52.202;9.876;2023-12-20T07:46:58;6.72;;;3.10;;
19675;SDS011;39539;52.202;9.876;2023-12-20T07:49:23;6.10;;;2.97;;
19675;SDS011;39539;52.202;9.876;2023-12-20T07:51:49;9.02;;;2.83;;
19675;SDS011;39539;52.202;9.876;2023-12-20T07:54:15;7.22;;;3.33;;
19675;SDS011;39539;52.202;9.876;2023-12-20T07:56:40;10.07;;;3.58;;
19675;SDS011;39539;52.202;9.876;2023-12-20T07:59:06;11.00;;;3.25;;
19675;SDS011;39539;52.202;9.876;2023-12-20T08:01:31;6.82;;;2.72;;
19675;SDS011;39539;52.202;9.876;2023-12-20T08:03:57;10.90;;;2.72;;
19675;SDS011;39539;52.202;9.876;2023-12-20T08:06:22;9.20;;;3.13;;
19675;SDS011;39539;52.202;9.876;2023-12-20T08:08:48;8.10;;;2.97;;
19675;SDS011;39539;52.202;9.876;2023-12-20T08:11:13;11.05;;;3.83;;
19675;SDS011;39539;52.202;9.876;2023-12-20T08:13:39;7.10;;;2.80;;
19675;SDS011;39539;52.202;9.876;2023-12-20T08:16:04;9.85;;;3.63;;
19675;SDS011;39539;52.202;9.876;2023-12-20T08:18:30;7.38;;;3.00;;
19675;SDS011;39539;52.202;9.876;2023-12-20T08:20:56;8.32;;;3.53;;
19675;SDS011;39539;52.202;9.876;2023-12-20T08:23:21;7.07;;;3.50;;
19675;SDS011;39539;52.202;9.876;2023-12-20T08:25:47;10.48;;;4.05;;
19675;SDS011;39539;52.202;9.876;2023-12-20T08:28:13;10.13;;;4.10;;
19675;SDS011;39539;52.202;9.876;2023-12-20T08:30:38;7.97;;;3.43;;
19675;SDS011;39539;52.202;9.876;2023-12-20T08:33:04;12.70;;;5.68;;
19675;SDS011;39539;52.202;9.876;2023-12-20T08:35:29;9.20;;;5.10;;
19675;SDS011;39539;52.202;9.876;2023-12-20T08:37:55;9.73;;;4.50;;
19675;SDS011;39539;52.202;9.876;2023-12-20T08:40:21;11.43;;;4.60;;
19675;SDS011;39539;52.202;9.876;2023-12-20T08:42:46;9.18;;;4.53;;
19675;SDS011;39539;52.202;9.876;2023-12-20T08:45:12;8.80;;;4.18;;
19675;SDS011;39539;52.202;9.876;2023-12-20T08:47:37;6.25;;;3.42;;
19675;SDS011;39539;52.202;9.876;2023-12-20T08:50:03;7.65;;;3.40;;
19675;SDS011;39539;52.202;9.876;2023-12-20T08:52:28;12.70;;;3.78;;
19675;SDS011;39539;52.202;9.876;2023-12-20T08:54:54;6.47;;;3.38;;
19675;SDS011;39539;52.202;9.876;2023-12-20T08:57:20;7.68;;;3.40;;
19675;SDS011;39539;52.202;9.876;2023-12-20T08:59:47;6.05;;;3.13;;
19675;SDS011;39539;52.202;9.876;2023-12-20T09:02:12;7.15;;;3.80;;
19675;SDS011;39539;52.202;9.876;2023-12-20T09:04:39;7.65;;;3.75;;
19675;SDS011;39539;52.202;9.876;2023-12-20T09:07:04;9.15;;;3.40;;
19675;SDS011;39539;52.202;9.876;2023-12-20T09:09:29;9.35;;;3.92;;
19675;SDS011;39539;52.202;9.876;2023-12-20T09:11:57;10.73;;;3.60;;
19675;SDS011;39539;52.202;9.876;2023-12-20T09:14:23;7.15;;;4.30;;
19675;SDS011;39539;52.202;9.876;2023-12-20T09:16:48;10.15;;;3.42;;
19675;SDS011;39539;52.202;9.876;2023-12-20T09:19:16;9.20;;;3.85;;
19675;SDS011;39539;52.202;9.876;2023-12-20T09:21:42;5.90;;;3.20;;
19675;SDS011;39539;52.202;9.876;2023-12-20T09:24:07;10.35;;;3.50;;
19675;SDS011;39539;52.202;9.876;2023-12-20T09:26:33;12.07;;;3.85;;
19675;SDS011;39539;52.202;9.876;2023-12-20T09:28:59;7.88;;;4.13;;
19675;SDS011;39539;52.202;9.876;2023-12-20T09:31:25;9.30;;;3.13;;
19675;SDS011;39539;52.202;9.876;2023-12-20T09:33:50;9.43;;;3.42;;
19675;SDS011;39539;52.202;9.876;2023-12-20T09:36:15;5.57;;;3.15;;
19675;SDS011;39539;52.202;9.876;2023-12-20T09:38:41;4.78;;;2.72;;
19675;SDS011;39539;52.202;9.876;2023-12-20T09:41:07;6.43;;;3.42;;
19675;SDS011;39539;52.202;9.876;2023-12-20T09:43:32;6.20;;;2.65;;
19675;SDS011;39539;52.202;9.876;2023-12-20T09:46:02;5.30;;;2.90;;
19675;SDS011;39539;52.202;9.876;2023-12-20T09:48:30;7.70;;;3.30;;
19675;SDS011;39539;52.202;9.876;2023-12-20T09:50:57;13.05;;;3.60;;
19675;SDS011;39539;52.202;9.876;2023-12-20T09:53:23;8.18;;;2.92;;
19675;SDS011;39539;52.202;9.876;2023-12-20T09:55:54;8.70;;;3.20;;
19675;SDS011;39539;52.202;9.876;2023-12-20T09:58:24;8.20;;;2.60;;
19675;SDS011;39539;52.202;9.876;2023-12-20T10:00:49;9.32;;;3.38;;
19675;SDS011;39539;52.202;9.876;2023-12-20T10:03:15;9.88;;;3.30;;
19675;SDS011;39539;52.202;9.876;2023-12-20T10:05:41;8.30;;;2.55;;
19675;SDS011;39539;52.202;9.876;2023-12-20T10:08:08;6.50;;;2.97;;
19675;SDS011;39539;52.202;9.876;2023-12-20T10:10:34;6.90;;;2.97;;
19675;SDS011;39539;52.202;9.876;2023-12-20T10:15:29;7.40;;;2.92;;
19675;SDS011;39539;52.202;9.876;2023-12-20T10:17:55;7.88;;;3.35;;
19675;SDS011;39539;52.202;9.876;2023-12-20T10:20:21;9.80;;;3.33;;
19675;SDS011;39539;52.202;9.876;2023-12-20T10:22:47;7.30;;;3.13;;
19675;SDS011;39539;52.202;9.876;2023-12-20T10:25:16;6.85;;;3.30;;
19675;SDS011;39539;52.202;9.876;2023-12-20T10:27:42;6.30;;;3.65;;
19675;SDS011;39539;52.202;9.876;2023-12-20T10:30:08;6.78;;;3.70;;
19675;SDS011;39539;52.202;9.876;2023-12-20T10:32:34;5.97;;;4.03;;
19675;SDS011;39539;52.202;9.876;2023-12-20T10:34:59;8.15;;;4.22;;
19675;SDS011;39539;52.202;9.876;2023-12-20T10:37:25;8.20;;;4.72;;
19675;SDS011;39539;52.202;9.876;2023-12-20T10:39:51;11.65;;;4.32;;
19675;SDS011;39539;52.202;9.876;2023-12-20T10:42:21;7.82;;;4.80;;
19675;SDS011;39539;52.202;9.876;2023-12-20T10:44:50;6.28;;;4.07;;
19675;SDS011;39539;52.202;9.876;2023-12-20T10:47:16;7.30;;;4.72;;
19675;SDS011;39539;52.202;9.876;2023-12-20T10:49:42;9.68;;;5.03;;
19675;SDS011;39539;52.202;9.876;2023-12-20T10:52:09;8.27;;;5.13;;
19675;SDS011;39539;52.202;9.876;2023-12-20T10:54:36;9.05;;;5.40;;
19675;SDS011;39539;52.202;9.876;2023-12-20T10:57:03;9.10;;;4.90;;
19675;SDS011;39539;52.202;9.876;2023-12-20T10:59:30;7.72;;;4.55;;
19675;SDS011;39539;52.202;9.876;2023-12-20T11:01:58;10.98;;;4.85;;
19675;SDS011;39539;52.202;9.876;2023-12-20T11:04:36;10.15;;;4.93;;
19675;SDS011;39539;52.202;9.876;2023-12-20T11:07:16;9.00;;;5.32;;
19675;SDS011;39539;52.202;9.876;2023-12-20T11:09:56;9.45;;;5.22;;
19675;SDS011;39539;52.202;9.876;2023-12-20T11:12:32;9.30;;;4.93;;
19675;SDS011;39539;52.202;9.876;2023-12-20T11:15:05;9.18;;;5.53;;
19675;SDS011;39539;52.202;9.876;2023-12-20T11:17:32;11.90;;;6.00;;
19675;SDS011;39539;52.202;9.876;2023-12-20T11:22:26;10.88;;;6.82;;
19675;SDS011;39539;52.202;9.876;2023-12-20T11:24:53;7.47;;;5.20;;
19675;SDS011;39539;52.202;9.876;2023-12-20T11:27:19;7.88;;;5.38;;
19675;SDS011;39539;52.202;9.876;2023-12-20T11:29:51;11.57;;;5.38;;
19675;SDS011;39539;52.202;9.876;2023-12-20T11:34:50;8.23;;;5.43;;
19675;SDS011;39539;52.202;9.876;2023-12-20T11:37:16;6.50;;;5.35;;
19675;SDS011;39539;52.202;9.876;2023-12-20T11:39:44;9.43;;;5.32;;
19675;SDS011;39539;52.202;9.876;2023-12-20T11:42:10;8.70;;;5.40;;
19675;SDS011;39539;52.202;9.876;2023-12-20T11:44:36;10.63;;;5.47;;
19675;SDS011;39539;52.202;9.876;2023-12-20T11:47:02;7.57;;;4.90;;
19675;SDS011;39539;52.202;9.876;2023-12-20T11:49:28;7.05;;;4.45;;
19675;SDS011;39539;52.202;9.876;2023-12-20T11:51:56;7.25;;;4.53;;
19675;SDS011;39539;52.202;9.876;2023-12-20T11:54:22;8.95;;;4.40;;
19675;SDS011;39539;52.202;9.876;2023-12-20T11:56:48;8.15;;;5.05;;
19675;SDS011;39539;52.202;9.876;2023-12-20T11:59:13;7.40;;;4.85;;
19675;SDS011;39539;52.202;9.876;2023-12-20T12:01:39;6.57;;;3.97;;
19675;SDS011;39539;52.202;9.876;2023-12-20T12:04:05;7.47;;;3.80;;
19675;SDS011;39539;52.202;9.876;2023-12-20T12:06:30;9.38;;;3.97;;
19675;SDS011;39539;52.202;9.876;2023-12-20T12:08:56;8.38;;;3.65;;
19675;SDS011;39539;52.202;9.876;2023-12-20T12:11:22;6.63;;;1.88;;
19675;SDS011;39539;52.202;9.876;2023-12-20T12:13:48;1.80;;;1.48;;
19675;SDS011;39539;52.202;9.876;2023-12-20T12:16:16;2.53;;;1.25;;
19675;SDS011;39539;52.202;9.876;2023-12-20T12:18:44;2.60;;;0.65;;
19675;SDS011;39539;52.202;9.876;2023-12-20T12:21:10;1.38;;;0.60;;
19675;SDS011;39539;52.202;9.876;2023-12-20T12:23:35;1.65;;;0.73;;
19675;SDS011;39539;52.202;9.876;2023-12-20T12:26:03;2.00;;;0.68;;
19675;SDS011;39539;52.202;9.876;2023-12-20T12:28:29;1.33;;;0.60;;
19675;SDS011;39539;52.202;9.876;2023-12-20T12:30:57;1.73;;;0.63;;
19675;SDS011;39539;52.202;9.876;2023-12-20T12:33:24;4.50;;;0.80;;
19675;SDS011;39539;52.202;9.876;2023-12-20T12:35:51;2.25;;;0.98;;
19675;SDS011;39539;52.202;9.876;2023-12-20T12:38:19;1.58;;;0.55;;
19675;SDS011;39539;52.202;9.876;2023-12-20T12:40:45;3.63;;;0.55;;
19675;SDS011;39539;52.202;9.876;2023-12-20T12:43:11;1.15;;;0.57;;
19675;SDS011;39539;52.202;9.876;2023-12-20T12:45:38;1.95;;;0.80;;
19675;SDS011;39539;52.202;9.876;2023-12-20T12:48:03;0.50;;;0.30;;
19675;SDS011;39539;52.202;9.876;2023-12-20T12:50:30;2.92;;;0.50;;
19675;SDS011;39539;52.202;9.876;2023-12-20T12:52:56;1.17;;;0.40;;
19675;SDS011;39539;52.202;9.876;2023-12-20T12:55:22;4.53;;;0.75;;
19675;SDS011;39539;52.202;9.876;2023-12-20T12:57:47;1.63;;;1.00;;
19675;SDS011;39539;52.202;9.876;2023-12-20T13:00:13;1.27;;;0.52;;
19675;SDS011;39539;52.202;9.876;2023-12-20T13:02:38;5.82;;;0.75;;
19675;SDS011;39539;52.202;9.876;2023-12-20T13:05:07;3.25;;;0.50;;
19675;SDS011;39539;52.202;9.876;2023-12-20T13:07:33;0.90;;;0.50;;
19675;SDS011;39539;52.202;9.876;2023-12-20T13:09:59;4.22;;;0.70;;
19675;SDS011;39539;52.202;9.876;2023-12-20T13:12:25;2.08;;;0.75;;
19675;SDS011;39539;52.202;9.876;2023-12-20T13:14:51;2.60;;;0.50;;
19675;SDS011;39539;52.202;9.876;2023-12-20T13:17:16;1.55;;;0.50;;
19675;SDS011;39539;52.202;9.876;2023-12-20T13:19:42;2.08;;;0.60;;
19675;SDS011;39539;52.202;9.876;2023-12-20T13:22:08;0.52;;;0.40;;
19675;SDS011;39539;52.202;9.876;2023-12-20T13:24:33;1.00;;;0.60;;
19675;SDS011;39539;52.202;9.876;2023-12-20T13:26:59;0.82;;;0.50;;
19675;SDS011;39539;52.202;9.876;2023-12-20T13:29:24;1.48;;;0.50;;
19675;SDS011;39539;52.202;9.876;2023-12-20T13:31:52;0.68;;;0.60;;
19675;SDS011;39539;52.202;9.876;2023-12-20T13:34:18;2.15;;;0.90;;
19675;SDS011;39539;52.202;9.876;2023-12-20T13:36:44;1.27;;;0.80;;
19675;SDS011;39539;52.202;9.876;2023-12-20T13:39:14;1.70;;;0.55;;
19675;SDS011;39539;52.202;9.876;2023-12-20T13:41:40;0.50;;;0.40;;
19675;SDS011;39539;52.202;9.876;2023-12-20T13:44:05;0.60;;;0.40;;
19675;SDS011;39539;52.202;9.876;2023-12-20T13:46:31;1.55;;;0.50;;
19675;SDS011;39539;52.202;9.876;2023-12-20T13:48:56;2.58;;;0.50;;
19675;SDS011;39539;52.202;9.876;2023-12-20T13:51:22;3.05;;;0.85;;
19675;SDS011;39539;52.202;9.876;2023-12-20T13:53:47;1.38;;;0.65;;
19675;SDS011;39539;52.202;9.876;2023-12-20T13:56:13;1.88;;;0.60;;
19675;SDS011;39539;52.202;9.876;2023-12-20T13:58:39;1.40;;;0.50;;
19675;SDS011;39539;52.202;9.876;2023-12-20T14:01:06;3.92;;;0.95;;
19675;SDS011;39539;52.202;9.876;2023-12-20T14:03:33;3.42;;;0.80;;
19675;SDS011;39539;52.202;9.876;2023-12-20T14:05:59;1.95;;;0.70;;
19675;SDS011;39539;52.202;9.876;2023-12-20T14:08:25;1.52;;;0.80;;
19675;SDS011;39539;52.202;9.876;2023-12-20T14:10:52;2.60;;;0.70;;
19675;SDS011;39539;52.202;9.876;2023-12-20T14:13:17;1.48;;;1.17;;
19675;SDS011;39539;52.202;9.876;2023-12-20T14:15:43;3.78;;;1.10;;
19675;SDS011;39539;52.202;9.876;2023-12-20T14:18:09;2.67;;;1.00;;
19675;SDS011;39539;52.202;9.876;2023-12-20T14:20:35;1.92;;;1.00;;
19675;SDS011;39539;52.202;9.876;2023-12-20T14:23:04;2.33;;;1.10;;
19675;SDS011;39539;52.202;9.876;2023-12-20T14:25:29;2.40;;;1.15;;
19675;SDS011;39539;52.202;9.876;2023-12-20T14:27:56;2.80;;;0.90;;
19675;SDS011;39539;52.202;9.876;2023-12-20T14:30:22;3.00;;;0.88;;
19675;SDS011;39539;52.202;9.876;2023-12-20T14:32:47;4.25;;;1.30;;
19675;SDS011;39539;52.202;9.876;2023-12-20T14:35:13;3.22;;;1.08;;
19675;SDS011;39539;52.202;9.876;2023-12-20T14:37:41;3.35;;;1.05;;
19675;SDS011;39539;52.202;9.876;2023-12-20T14:40:06;3.47;;;1.00;;
19675;SDS011;39539;52.202;9.876;2023-12-20T14:42:35;2.08;;;1.13;;
19675;SDS011;39539;52.202;9.876;2023-12-20T14:45:01;3.35;;;1.40;;